sensor_id;sensor_type;location;lat;lon;timestamp;temperature;humidity
23329;DHT22;11836;51.050;3.716;2023-06-24T00:00:20;24.50;93.40
23329;DHT22;11836;51.050;3.716;2023-06-24T00:05:13;24.50;93.40
23329;DHT22;11836;51.050;3.716;2023-06-24T00:07:39;24.50;93.40
23329;DHT22;11836;51.050;3.716;2023-06-24T00:10:16;24.50;93.40
23329;DHT22;11836;51.050;3.716;2023-06-24T00:15:13;24.40;93.50
23329;DHT22;11836;51.050;3.716;2023-06-24T00:17:39;24.40;93.60
23329;DHT22;11836;51.050;3.716;2023-06-24T00:23:17;24.30;93.60
23329;DHT22;11836;51.050;3.716;2023-06-24T00:25:52;24.30;93.70
23329;DHT22;11836;51.050;3.716;2023-06-24T00:28:18;24.30;93.70
23329;DHT22;11836;51.050;3.716;2023-06-24T00:30:44;24.30;93.70
23329;DHT22;11836;51.050;3.716;2023-06-24T00:33:09;24.30;93.70
23329;DHT22;11836;51.050;3.716;2023-06-24T00:35:37;24.30;93.70
23329;DHT22;11836;51.050;3.716;2023-06-24T00:38:10;24.30;93.80
23329;DHT22;11836;51.050;3.716;2023-06-24T00:40:37;24.30;93.80
23329;DHT22;11836;51.050;3.716;2023-06-24T00:43:25;24.20;93.80
23329;DHT22;11836;51.050;3.716;2023-06-24T00:46:14;24.20;93.70
23329;DHT22;11836;51.050;3.716;2023-06-24T00:48:41;24.20;93.70
23329;DHT22;11836;51.050;3.716;2023-06-24T00:51:06;24.20;93.80
23329;DHT22;11836;51.050;3.716;2023-06-24T00:53:38;24.10;93.80
23329;DHT22;11836;51.050;3.716;2023-06-24T00:56:06;24.10;93.90
23329;DHT22;11836;51.050;3.716;2023-06-24T00:58:32;24.10;93.90
23329;DHT22;11836;51.050;3.716;2023-06-24T01:03:31;24.10;93.90
23329;DHT22;11836;51.050;3.716;2023-06-24T01:06:35;24.10;93.90
23329;DHT22;11836;51.050;3.716;2023-06-24T01:09:09;24.10;93.80
23329;DHT22;11836;51.050;3.716;2023-06-24T01:11:35;24.00;93.90
23329;DHT22;11836;51.050;3.716;2023-06-24T01:14:00;24.00;93.90
23329;DHT22;11836;51.050;3.716;2023-06-24T01:16:37;24.00;94.00
23329;DHT22;11836;51.050;3.716;2023-06-24T01:25:07;23.90;94.00
23329;DHT22;11836;51.050;3.716;2023-06-24T01:33:58;23.80;94.10
23329;DHT22;11836;51.050;3.716;2023-06-24T01:36:34;23.80;94.10
23329;DHT22;11836;51.050;3.716;2023-06-24T01:39:04;23.80;94.10
23329;DHT22;11836;51.050;3.716;2023-06-24T01:41:47;23.80;94.10
23329;DHT22;11836;51.050;3.716;2023-06-24T01:44:15;23.80;94.10
23329;DHT22;11836;51.050;3.716;2023-06-24T01:46:44;23.70;94.20
23329;DHT22;11836;51.050;3.716;2023-06-24T01:49:40;23.50;94.10
23329;DHT22;11836;51.050;3.716;2023-06-24T01:52:08;23.60;94.20
23329;DHT22;11836;51.050;3.716;2023-06-24T01:54:36;23.70;94.20
23329;DHT22;11836;51.050;3.716;2023-06-24T01:57:06;23.70;94.30
23329;DHT22;11836;51.050;3.716;2023-06-24T01:59:34;23.70;94.30
23329;DHT22;11836;51.050;3.716;2023-06-24T02:02:03;23.70;94.30
23329;DHT22;11836;51.050;3.716;2023-06-24T02:05:10;23.70;94.30
23329;DHT22;11836;51.050;3.716;2023-06-24T02:07:42;23.70;94.30
23329;DHT22;11836;51.050;3.716;2023-06-24T02:10:09;23.60;94.30
23329;DHT22;11836;51.050;3.716;2023-06-24T02:12:36;23.60;94.30
23329;DHT22;11836;51.050;3.716;2023-06-24T02:15:04;23.60;94.40
23329;DHT22;11836;51.050;3.716;2023-06-24T02:17:32;23.60;94.40
23329;DHT22;11836;51.050;3.716;2023-06-24T02:19:59;23.60;94.40
23329;DHT22;11836;51.050;3.716;2023-06-24T02:22:28;23.70;94.40
23329;DHT22;11836;51.050;3.716;2023-06-24T02:24:54;23.60;94.40
23329;DHT22;11836;51.050;3.716;2023-06-24T02:27:24;23.60;94.40
23329;DHT22;11836;51.050;3.716;2023-06-24T02:29:50;23.60;94.40
23329;DHT22;11836;51.050;3.716;2023-06-24T02:32:33;23.50;94.40
23329;DHT22;11836;51.050;3.716;2023-06-24T02:35:01;23.50;94.50
23329;DHT22;11836;51.050;3.716;2023-06-24T02:37:42;23.50;94.50
23329;DHT22;11836;51.050;3.716;2023-06-24T02:40:09;23.50;94.50
23329;DHT22;11836;51.050;3.716;2023-06-24T02:42:38;23.40;94.50
23329;DHT22;11836;51.050;3.716;2023-06-24T02:45:19;23.40;94.50
23329;DHT22;11836;51.050;3.716;2023-06-24T02:47:46;23.40;94.50
23329;DHT22;11836;51.050;3.716;2023-06-24T02:50:13;23.30;94.50
23329;DHT22;11836;51.050;3.716;2023-06-24T02:55:10;23.40;94.70
23329;DHT22;11836;51.050;3.716;2023-06-24T02:57:36;23.30;94.70
23329;DHT22;11836;51.050;3.716;2023-06-24T03:00:30;23.30;94.70
23329;DHT22;11836;51.050;3.716;2023-06-24T03:03:00;23.30;94.70
23329;DHT22;11836;51.050;3.716;2023-06-24T03:05:26;23.30;94.80
23329;DHT22;11836;51.050;3.716;2023-06-24T03:07:52;23.30;94.80
23329;DHT22;11836;51.050;3.716;2023-06-24T03:10:37;23.20;94.80
23329;DHT22;11836;51.050;3.716;2023-06-24T03:13:08;23.20;94.80
23329;DHT22;11836;51.050;3.716;2023-06-24T03:15:40;23.20;94.90
23329;DHT22;11836;51.050;3.716;2023-06-24T03:18:06;23.20;94.80
23329;DHT22;11836;51.050;3.716;2023-06-24T03:20:33;23.20;94.90
23329;DHT22;11836;51.050;3.716;2023-06-24T03:23:05;23.20;95.00
23329;DHT22;11836;51.050;3.716;2023-06-24T03:25:32;23.20;95.00
23329;DHT22;11836;51.050;3.716;2023-06-24T03:27:57;23.10;94.90
23329;DHT22;11836;51.050;3.716;2023-06-24T03:30:27;23.10;95.00
23329;DHT22;11836;51.050;3.716;2023-06-24T03:32:53;23.10;95.10
23329;DHT22;11836;51.050;3.716;2023-06-24T03:35:43;23.00;95.00
23329;DHT22;11836;51.050;3.716;2023-06-24T03:38:08;23.10;95.10
23329;DHT22;11836;51.050;3.716;2023-06-24T03:40:34;23.10;95.20
23329;DHT22;11836;51.050;3.716;2023-06-24T03:43:00;23.10;95.20
23329;DHT22;11836;51.050;3.716;2023-06-24T03:45:55;23.10;95.20
23329;DHT22;11836;51.050;3.716;2023-06-24T03:48:35;23.10;95.10
23329;DHT22;11836;51.050;3.716;2023-06-24T03:51:01;23.10;95.20
23329;DHT22;11836;51.050;3.716;2023-06-24T03:53:42;23.10;95.30
23329;DHT22;11836;51.050;3.716;2023-06-24T03:56:08;23.10;95.20
23329;DHT22;11836;51.050;3.716;2023-06-24T04:01:30;23.10;95.20
23329;DHT22;11836;51.050;3.716;2023-06-24T04:07:04;23.10;95.20
23329;DHT22;11836;51.050;3.716;2023-06-24T04:09:34;23.10;95.20
23329;DHT22;11836;51.050;3.716;2023-06-24T04:12:00;23.10;95.30
23329;DHT22;11836;51.050;3.716;2023-06-24T04:14:44;23.00;95.20
23329;DHT22;11836;51.050;3.716;2023-06-24T04:17:10;23.10;95.20
23329;DHT22;11836;51.050;3.716;2023-06-24T04:19:44;23.00;95.30
23329;DHT22;11836;51.050;3.716;2023-06-24T04:22:10;23.10;95.30
23329;DHT22;11836;51.050;3.716;2023-06-24T04:24:36;23.00;95.30
23329;DHT22;11836;51.050;3.716;2023-06-24T04:27:02;23.00;95.30
23329;DHT22;11836;51.050;3.716;2023-06-24T04:29:28;23.10;95.30
23329;DHT22;11836;51.050;3.716;2023-06-24T04:31:53;23.10;95.30
23329;DHT22;11836;51.050;3.716;2023-06-24T04:34:19;23.00;95.60
23329;DHT22;11836;51.050;3.716;2023-06-24T04:36:44;23.10;95.40
23329;DHT22;11836;51.050;3.716;2023-06-24T04:39:44;23.10;95.40
23329;DHT22;11836;51.050;3.716;2023-06-24T04:44:45;23.10;95.30
23329;DHT22;11836;51.050;3.716;2023-06-24T04:47:12;23.10;95.30
23329;DHT22;11836;51.050;3.716;2023-06-24T04:49:40;23.10;95.30
23329;DHT22;11836;51.050;3.716;2023-06-24T04:52:06;23.10;95.30
23329;DHT22;11836;51.050;3.716;2023-06-24T04:54:32;23.10;95.40
23329;DHT22;11836;51.050;3.716;2023-06-24T04:56:58;23.10;95.30
23329;DHT22;11836;51.050;3.716;2023-06-24T04:59:23;23.10;95.30
23329;DHT22;11836;51.050;3.716;2023-06-24T05:01:49;23.10;95.30
23329;DHT22;11836;51.050;3.716;2023-06-24T05:04:42;23.20;95.30
23329;DHT22;11836;51.050;3.716;2023-06-24T05:07:08;23.20;95.30
23329;DHT22;11836;51.050;3.716;2023-06-24T05:09:34;23.20;95.30
23329;DHT22;11836;51.050;3.716;2023-06-24T05:12:03;23.30;95.30
23329;DHT22;11836;51.050;3.716;2023-06-24T05:14:29;23.30;95.10
23329;DHT22;11836;51.050;3.716;2023-06-24T05:16:55;23.40;95.10
23329;DHT22;11836;51.050;3.716;2023-06-24T05:19:27;23.50;95.10
23329;DHT22;11836;51.050;3.716;2023-06-24T05:21:53;23.50;95.00
23329;DHT22;11836;51.050;3.716;2023-06-24T05:24:19;23.50;95.00
23329;DHT22;11836;51.050;3.716;2023-06-24T05:26:51;23.50;95.00
23329;DHT22;11836;51.050;3.716;2023-06-24T05:35:51;23.20;94.60
23329;DHT22;11836;51.050;3.716;2023-06-24T05:38:28;24.10;94.30
23329;DHT22;11836;51.050;3.716;2023-06-24T05:43:31;27.40;90.30
23329;DHT22;11836;51.050;3.716;2023-06-24T05:49:08;30.40;83.00
23329;DHT22;11836;51.050;3.716;2023-06-24T05:51:40;31.50;80.30
23329;DHT22;11836;51.050;3.716;2023-06-24T05:54:07;32.40;78.10
23329;DHT22;11836;51.050;3.716;2023-06-24T06:02:48;34.40;73.40
23329;DHT22;11836;51.050;3.716;2023-06-24T06:05:36;34.90;71.60
23329;DHT22;11836;51.050;3.716;2023-06-24T06:08:02;35.50;70.80
23329;DHT22;11836;51.050;3.716;2023-06-24T06:13:59;36.20;69.00
23329;DHT22;11836;51.050;3.716;2023-06-24T06:19:25;37.10;66.90
23329;DHT22;11836;51.050;3.716;2023-06-24T06:21:51;37.40;66.10
23329;DHT22;11836;51.050;3.716;2023-06-24T06:24:17;37.50;65.40
23329;DHT22;11836;51.050;3.716;2023-06-24T06:26:44;37.80;65.00
23329;DHT22;11836;51.050;3.716;2023-06-24T06:29:10;38.20;64.10
23329;DHT22;11836;51.050;3.716;2023-06-24T06:31:42;38.60;63.50
23329;DHT22;11836;51.050;3.716;2023-06-24T06:34:07;39.20;62.40
23329;DHT22;11836;51.050;3.716;2023-06-24T06:36:34;39.50;61.40
23329;DHT22;11836;51.050;3.716;2023-06-24T06:38:59;39.90;60.30
23329;DHT22;11836;51.050;3.716;2023-06-24T06:41:25;40.10;59.70
23329;DHT22;11836;51.050;3.716;2023-06-24T06:43:52;40.40;59.20
23329;DHT22;11836;51.050;3.716;2023-06-24T06:46:17;40.70;58.70
23329;DHT22;11836;51.050;3.716;2023-06-24T06:48:43;41.00;58.20
23329;DHT22;11836;51.050;3.716;2023-06-24T06:51:09;41.20;57.50
23329;DHT22;11836;51.050;3.716;2023-06-24T06:53:34;41.40;56.90
23329;DHT22;11836;51.050;3.716;2023-06-24T06:56:00;41.70;56.40
23329;DHT22;11836;51.050;3.716;2023-06-24T06:58:26;42.00;55.90
23329;DHT22;11836;51.050;3.716;2023-06-24T07:00:51;42.30;55.90
23329;DHT22;11836;51.050;3.716;2023-06-24T07:03:17;42.50;54.90
23329;DHT22;11836;51.050;3.716;2023-06-24T07:05:44;42.80;54.10
23329;DHT22;11836;51.050;3.716;2023-06-24T07:08:10;43.00;53.70
23329;DHT22;11836;51.050;3.716;2023-06-24T07:10:35;43.00;52.70
23329;DHT22;11836;51.050;3.716;2023-06-24T07:13:01;42.90;53.10
23329;DHT22;11836;51.050;3.716;2023-06-24T07:18:33;42.70;53.00
23329;DHT22;11836;51.050;3.716;2023-06-24T07:21:00;42.40;53.10
23329;DHT22;11836;51.050;3.716;2023-06-24T07:23:27;42.30;53.00
23329;DHT22;11836;51.050;3.716;2023-06-24T07:25:52;42.10;53.00
23329;DHT22;11836;51.050;3.716;2023-06-24T07:28:21;41.90;53.10
23329;DHT22;11836;51.050;3.716;2023-06-24T07:33:16;41.10;54.00
23329;DHT22;11836;51.050;3.716;2023-06-24T07:35:42;40.40;54.70
23329;DHT22;11836;51.050;3.716;2023-06-24T07:38:11;39.70;55.50
23329;DHT22;11836;51.050;3.716;2023-06-24T07:40:37;39.00;56.70
23329;DHT22;11836;51.050;3.716;2023-06-24T07:43:03;38.20;58.30
23329;DHT22;11836;51.050;3.716;2023-06-24T07:45:28;37.50;59.10
23329;DHT22;11836;51.050;3.716;2023-06-24T07:47:54;36.70;60.40
23329;DHT22;11836;51.050;3.716;2023-06-24T07:50:20;35.90;61.90
23329;DHT22;11836;51.050;3.716;2023-06-24T07:52:45;35.30;63.40
23329;DHT22;11836;51.050;3.716;2023-06-24T07:55:11;34.90;65.80
23329;DHT22;11836;51.050;3.716;2023-06-24T08:00:11;34.30;66.80
23329;DHT22;11836;51.050;3.716;2023-06-24T08:05:41;33.80;68.40
23329;DHT22;11836;51.050;3.716;2023-06-24T08:08:42;33.60;68.70
23329;DHT22;11836;51.050;3.716;2023-06-24T08:11:07;33.40;70.00
23329;DHT22;11836;51.050;3.716;2023-06-24T08:13:36;33.20;70.60
23329;DHT22;11836;51.050;3.716;2023-06-24T08:16:01;33.20;70.80
23329;DHT22;11836;51.050;3.716;2023-06-24T08:18:28;33.10;71.10
23329;DHT22;11836;51.050;3.716;2023-06-24T08:20:53;33.00;71.50
23329;DHT22;11836;51.050;3.716;2023-06-24T08:23:50;32.90;71.70
23329;DHT22;11836;51.050;3.716;2023-06-24T08:26:17;32.80;71.30
23329;DHT22;11836;51.050;3.716;2023-06-24T08:28:46;32.70;72.20
23329;DHT22;11836;51.050;3.716;2023-06-24T08:34:34;32.60;71.90
23329;DHT22;11836;51.050;3.716;2023-06-24T08:37:00;32.50;72.90
23329;DHT22;11836;51.050;3.716;2023-06-24T08:39:46;32.50;73.00
23329;DHT22;11836;51.050;3.716;2023-06-24T08:42:12;32.40;72.90
23329;DHT22;11836;51.050;3.716;2023-06-24T08:44:38;32.40;72.80
23329;DHT22;11836;51.050;3.716;2023-06-24T08:47:07;32.40;73.40
23329;DHT22;11836;51.050;3.716;2023-06-24T08:49:34;32.30;73.50
23329;DHT22;11836;51.050;3.716;2023-06-24T08:52:10;32.40;71.90
23329;DHT22;11836;51.050;3.716;2023-06-24T08:54:38;32.30;73.40
23329;DHT22;11836;51.050;3.716;2023-06-24T08:57:08;32.30;73.60
23329;DHT22;11836;51.050;3.716;2023-06-24T08:59:40;32.40;73.70
23329;DHT22;11836;51.050;3.716;2023-06-24T09:02:06;32.40;73.50
23329;DHT22;11836;51.050;3.716;2023-06-24T09:04:32;32.40;74.00
23329;DHT22;11836;51.050;3.716;2023-06-24T09:06:58;32.50;73.50
23329;DHT22;11836;51.050;3.716;2023-06-24T09:09:24;32.60;73.10
23329;DHT22;11836;51.050;3.716;2023-06-24T09:12:01;32.80;72.80
23329;DHT22;11836;51.050;3.716;2023-06-24T09:14:30;33.20;71.40
23329;DHT22;11836;51.050;3.716;2023-06-24T09:16:57;33.50;71.10
23329;DHT22;11836;51.050;3.716;2023-06-24T09:19:27;33.70;69.60
23329;DHT22;11836;51.050;3.716;2023-06-24T09:22:06;33.80;70.30
23329;DHT22;11836;51.050;3.716;2023-06-24T09:24:36;33.70;70.60
23329;DHT22;11836;51.050;3.716;2023-06-24T09:27:05;33.50;71.00
23329;DHT22;11836;51.050;3.716;2023-06-24T09:29:35;33.20;71.60
23329;DHT22;11836;51.050;3.716;2023-06-24T09:32:04;32.90;72.90
23329;DHT22;11836;51.050;3.716;2023-06-24T09:34:31;32.50;72.70
23329;DHT22;11836;51.050;3.716;2023-06-24T09:36:57;32.40;72.60
23329;DHT22;11836;51.050;3.716;2023-06-24T09:42:49;31.90;74.30
23329;DHT22;11836;51.050;3.716;2023-06-24T09:45:44;31.70;74.90
23329;DHT22;11836;51.050;3.716;2023-06-24T09:48:57;31.50;75.50
23329;DHT22;11836;51.050;3.716;2023-06-24T09:54:19;31.20;75.20
23329;DHT22;11836;51.050;3.716;2023-06-24T10:06:17;30.70;76.40
23329;DHT22;11836;51.050;3.716;2023-06-24T10:08:43;30.50;76.60
23329;DHT22;11836;51.050;3.716;2023-06-24T10:11:12;30.50;77.20
23329;DHT22;11836;51.050;3.716;2023-06-24T10:13:38;30.40;76.60
23329;DHT22;11836;51.050;3.716;2023-06-24T10:16:04;30.30;77.00
23329;DHT22;11836;51.050;3.716;2023-06-24T10:18:48;30.30;77.50
23329;DHT22;11836;51.050;3.716;2023-06-24T10:21:16;30.10;77.50
23329;DHT22;11836;51.050;3.716;2023-06-24T10:26:32;30.10;76.20
23329;DHT22;11836;51.050;3.716;2023-06-24T10:36:56;29.90;77.20
23329;DHT22;11836;51.050;3.716;2023-06-24T10:39:39;29.90;77.20
23329;DHT22;11836;51.050;3.716;2023-06-24T10:44:54;29.80;77.90
23329;DHT22;11836;51.050;3.716;2023-06-24T10:47:24;29.80;78.00
23329;DHT22;11836;51.050;3.716;2023-06-24T10:49:50;29.70;78.30
23329;DHT22;11836;51.050;3.716;2023-06-24T10:52:19;29.70;78.10
23329;DHT22;11836;51.050;3.716;2023-06-24T10:54:48;29.60;78.70
23329;DHT22;11836;51.050;3.716;2023-06-24T10:57:14;29.60;78.30
23329;DHT22;11836;51.050;3.716;2023-06-24T10:59:41;29.60;78.30
23329;DHT22;11836;51.050;3.716;2023-06-24T11:02:12;29.60;78.70
23329;DHT22;11836;51.050;3.716;2023-06-24T11:04:45;29.60;78.80
23329;DHT22;11836;51.050;3.716;2023-06-24T11:07:33;29.50;79.70
23329;DHT22;11836;51.050;3.716;2023-06-24T11:10:10;29.50;78.70
23329;DHT22;11836;51.050;3.716;2023-06-24T11:12:38;29.50;78.50
23329;DHT22;11836;51.050;3.716;2023-06-24T11:15:05;29.40;78.70
23329;DHT22;11836;51.050;3.716;2023-06-24T11:17:33;29.40;77.60
23329;DHT22;11836;51.050;3.716;2023-06-24T11:19:59;29.40;77.40
23329;DHT22;11836;51.050;3.716;2023-06-24T11:22:25;29.30;77.70
23329;DHT22;11836;51.050;3.716;2023-06-24T11:24:51;29.30;77.50
23329;DHT22;11836;51.050;3.716;2023-06-24T11:27:27;29.20;76.90
23329;DHT22;11836;51.050;3.716;2023-06-24T11:29:54;29.20;77.90
23329;DHT22;11836;51.050;3.716;2023-06-24T11:32:22;29.10;77.90
23329;DHT22;11836;51.050;3.716;2023-06-24T11:34:48;29.10;76.70
23329;DHT22;11836;51.050;3.716;2023-06-24T11:37:17;29.10;77.30
23329;DHT22;11836;51.050;3.716;2023-06-24T11:39:43;29.00;77.50
23329;DHT22;11836;51.050;3.716;2023-06-24T11:45:27;29.00;76.70
23329;DHT22;11836;51.050;3.716;2023-06-24T11:47:53;28.90;76.50
23329;DHT22;11836;51.050;3.716;2023-06-24T11:50:26;28.90;76.60
23329;DHT22;11836;51.050;3.716;2023-06-24T11:55:55;28.90;76.60
23329;DHT22;11836;51.050;3.716;2023-06-24T11:58:28;28.90;78.00
23329;DHT22;11836;51.050;3.716;2023-06-24T12:01:19;28.90;78.60
23329;DHT22;11836;51.050;3.716;2023-06-24T12:07:16;28.90;78.00
23329;DHT22;11836;51.050;3.716;2023-06-24T12:09:41;28.80;78.50
23329;DHT22;11836;51.050;3.716;2023-06-24T12:12:08;28.80;79.00
23329;DHT22;11836;51.050;3.716;2023-06-24T12:15:12;28.80;79.00
23329;DHT22;11836;51.050;3.716;2023-06-24T12:21:10;28.80;75.70
23329;DHT22;11836;51.050;3.716;2023-06-24T12:23:36;28.80;75.90
23329;DHT22;11836;51.050;3.716;2023-06-24T12:26:05;28.80;76.60
23329;DHT22;11836;51.050;3.716;2023-06-24T12:29:08;28.70;74.30
23329;DHT22;11836;51.050;3.716;2023-06-24T12:37:59;28.70;77.00
23329;DHT22;11836;51.050;3.716;2023-06-24T12:40:25;28.70;75.20
23329;DHT22;11836;51.050;3.716;2023-06-24T12:42:51;28.70;75.10
23329;DHT22;11836;51.050;3.716;2023-06-24T12:45:32;28.70;76.60
23329;DHT22;11836;51.050;3.716;2023-06-24T12:47:58;28.70;78.20
23329;DHT22;11836;51.050;3.716;2023-06-24T12:50:25;28.70;78.00
23329;DHT22;11836;51.050;3.716;2023-06-24T12:52:53;28.70;78.10
23329;DHT22;11836;51.050;3.716;2023-06-24T12:55:37;28.70;78.00
23329;DHT22;11836;51.050;3.716;2023-06-24T12:58:03;28.70;76.70
23329;DHT22;11836;51.050;3.716;2023-06-24T13:00:28;28.70;77.30
23329;DHT22;11836;51.050;3.716;2023-06-24T13:02:54;28.70;79.60
23329;DHT22;11836;51.050;3.716;2023-06-24T13:05:22;28.70;76.70
23329;DHT22;11836;51.050;3.716;2023-06-24T13:08:04;28.70;78.10
23329;DHT22;11836;51.050;3.716;2023-06-24T13:10:46;28.70;79.00
23329;DHT22;11836;51.050;3.716;2023-06-24T13:13:23;28.70;74.80
23329;DHT22;11836;51.050;3.716;2023-06-24T13:15:52;28.70;76.10
23329;DHT22;11836;51.050;3.716;2023-06-24T13:18:20;28.70;78.00
23329;DHT22;11836;51.050;3.716;2023-06-24T13:23:49;28.70;78.80
23329;DHT22;11836;51.050;3.716;2023-06-24T13:26:14;28.70;78.70
23329;DHT22;11836;51.050;3.716;2023-06-24T13:28:40;28.70;78.70
23329;DHT22;11836;51.050;3.716;2023-06-24T13:34:15;28.80;77.50
23329;DHT22;11836;51.050;3.716;2023-06-24T13:36:41;28.70;74.60
23329;DHT22;11836;51.050;3.716;2023-06-24T13:39:08;28.70;76.80
23329;DHT22;11836;51.050;3.716;2023-06-24T13:41:34;28.70;78.10
23329;DHT22;11836;51.050;3.716;2023-06-24T13:44:04;28.70;76.70
23329;DHT22;11836;51.050;3.716;2023-06-24T13:52:56;28.70;78.50
23329;DHT22;11836;51.050;3.716;2023-06-24T13:55:22;28.70;78.40
23329;DHT22;11836;51.050;3.716;2023-06-24T13:57:48;28.70;75.50
23329;DHT22;11836;51.050;3.716;2023-06-24T14:00:15;28.70;78.00
23329;DHT22;11836;51.050;3.716;2023-06-24T14:02:41;28.70;79.00
23329;DHT22;11836;51.050;3.716;2023-06-24T14:05:07;28.70;78.30
23329;DHT22;11836;51.050;3.716;2023-06-24T14:16:55;28.70;79.50
23329;DHT22;11836;51.050;3.716;2023-06-24T14:19:33;28.70;79.90
23329;DHT22;11836;51.050;3.716;2023-06-24T14:22:08;28.70;80.40
23329;DHT22;11836;51.050;3.716;2023-06-24T14:27:48;28.70;76.60
23329;DHT22;11836;51.050;3.716;2023-06-24T14:30:43;28.70;75.20
23329;DHT22;11836;51.050;3.716;2023-06-24T14:33:11;28.70;76.50
23329;DHT22;11836;51.050;3.716;2023-06-24T14:35:37;28.70;77.70
23329;DHT22;11836;51.050;3.716;2023-06-24T14:38:03;28.70;79.40
23329;DHT22;11836;51.050;3.716;2023-06-24T14:40:33;28.80;79.90
23329;DHT22;11836;51.050;3.716;2023-06-24T14:43:19;28.70;78.30
23329;DHT22;11836;51.050;3.716;2023-06-24T14:45:45;28.80;74.70
23329;DHT22;11836;51.050;3.716;2023-06-24T14:48:10;28.80;73.60
23329;DHT22;11836;51.050;3.716;2023-06-24T14:53:32;28.80;73.40
23329;DHT22;11836;51.050;3.716;2023-06-24T14:55:57;28.80;75.20
23329;DHT22;11836;51.050;3.716;2023-06-24T14:58:23;28.80;77.60
23329;DHT22;11836;51.050;3.716;2023-06-24T15:04:01;28.90;78.40
23329;DHT22;11836;51.050;3.716;2023-06-24T15:06:27;28.90;75.50
23329;DHT22;11836;51.050;3.716;2023-06-24T15:08:53;28.90;72.60
23329;DHT22;11836;51.050;3.716;2023-06-24T15:11:18;28.90;76.40
23329;DHT22;11836;51.050;3.716;2023-06-24T15:13:47;28.90;79.10
23329;DHT22;11836;51.050;3.716;2023-06-24T15:16:13;28.90;79.10
23329;DHT22;11836;51.050;3.716;2023-06-24T15:18:49;28.90;77.50
23329;DHT22;11836;51.050;3.716;2023-06-24T15:21:21;29.00;74.50
23329;DHT22;11836;51.050;3.716;2023-06-24T15:23:54;28.90;76.50
23329;DHT22;11836;51.050;3.716;2023-06-24T15:26:20;29.00;72.10
23329;DHT22;11836;51.050;3.716;2023-06-24T15:28:53;28.90;71.50
23329;DHT22;11836;51.050;3.716;2023-06-24T15:31:19;28.90;71.10
23329;DHT22;11836;51.050;3.716;2023-06-24T15:33:46;28.90;75.60
23329;DHT22;11836;51.050;3.716;2023-06-24T15:36:11;28.90;74.80
23329;DHT22;11836;51.050;3.716;2023-06-24T15:38:37;29.00;70.10
23329;DHT22;11836;51.050;3.716;2023-06-24T15:41:18;29.00;71.30
23329;DHT22;11836;51.050;3.716;2023-06-24T15:46:12;29.00;78.20
23329;DHT22;11836;51.050;3.716;2023-06-24T15:48:38;29.00;78.30
23329;DHT22;11836;51.050;3.716;2023-06-24T15:51:04;29.00;72.70
23329;DHT22;11836;51.050;3.716;2023-06-24T15:53:32;29.00;68.60
23329;DHT22;11836;51.050;3.716;2023-06-24T15:55:59;29.10;71.60
23329;DHT22;11836;51.050;3.716;2023-06-24T16:01:21;29.10;70.90
23329;DHT22;11836;51.050;3.716;2023-06-24T16:03:46;29.10;72.80
23329;DHT22;11836;51.050;3.716;2023-06-24T16:06:12;29.10;70.10
23329;DHT22;11836;51.050;3.716;2023-06-24T16:08:37;29.10;67.70
23329;DHT22;11836;51.050;3.716;2023-06-24T16:11:03;29.10;67.10
23329;DHT22;11836;51.050;3.716;2023-06-24T16:13:30;29.00;67.70
23329;DHT22;11836;51.050;3.716;2023-06-24T16:15:57;29.00;70.00
23329;DHT22;11836;51.050;3.716;2023-06-24T16:18:23;29.00;68.80
23329;DHT22;11836;51.050;3.716;2023-06-24T16:20:49;29.00;69.00
23329;DHT22;11836;51.050;3.716;2023-06-24T16:23:14;29.00;68.20
23329;DHT22;11836;51.050;3.716;2023-06-24T16:25:41;29.00;67.70
23329;DHT22;11836;51.050;3.716;2023-06-24T16:28:07;29.00;67.70
23329;DHT22;11836;51.050;3.716;2023-06-24T16:30:32;29.10;67.70
23329;DHT22;11836;51.050;3.716;2023-06-24T16:32:58;29.00;68.00
23329;DHT22;11836;51.050;3.716;2023-06-24T16:35:27;29.10;66.80
23329;DHT22;11836;51.050;3.716;2023-06-24T16:37:52;29.10;67.00
23329;DHT22;11836;51.050;3.716;2023-06-24T16:40:18;29.10;67.40
23329;DHT22;11836;51.050;3.716;2023-06-24T16:42:44;29.10;67.60
23329;DHT22;11836;51.050;3.716;2023-06-24T16:45:10;29.10;76.20
23329;DHT22;11836;51.050;3.716;2023-06-24T16:47:41;29.10;81.70
23329;DHT22;11836;51.050;3.716;2023-06-24T16:50:07;29.10;84.20
23329;DHT22;11836;51.050;3.716;2023-06-24T16:52:41;29.10;85.00
23329;DHT22;11836;51.050;3.716;2023-06-24T16:55:07;28.90;88.00
23329;DHT22;11836;51.050;3.716;2023-06-24T16:57:32;28.90;88.60
23329;DHT22;11836;51.050;3.716;2023-06-24T16:59:58;28.70;89.10
23329;DHT22;11836;51.050;3.716;2023-06-24T17:02:26;28.70;89.70
23329;DHT22;11836;51.050;3.716;2023-06-24T17:04:54;28.70;89.90
23329;DHT22;11836;51.050;3.716;2023-06-24T17:07:19;28.80;93.90
23329;DHT22;11836;51.050;3.716;2023-06-24T17:09:45;28.80;91.80
23329;DHT22;11836;51.050;3.716;2023-06-24T17:12:15;28.70;91.10
23329;DHT22;11836;51.050;3.716;2023-06-24T17:14:43;28.70;90.40
23329;DHT22;11836;51.050;3.716;2023-06-24T17:20:18;28.70;90.30
23329;DHT22;11836;51.050;3.716;2023-06-24T17:23:02;28.70;90.50
23329;DHT22;11836;51.050;3.716;2023-06-24T17:25:28;28.70;90.40
23329;DHT22;11836;51.050;3.716;2023-06-24T17:27:54;28.60;90.60
23329;DHT22;11836;51.050;3.716;2023-06-24T17:30:21;28.40;90.70
23329;DHT22;11836;51.050;3.716;2023-06-24T17:33:10;28.40;90.70
23329;DHT22;11836;51.050;3.716;2023-06-24T17:35:39;28.30;90.80
23329;DHT22;11836;51.050;3.716;2023-06-24T17:38:04;28.20;91.00
23329;DHT22;11836;51.050;3.716;2023-06-24T17:40:31;28.30;91.10
23329;DHT22;11836;51.050;3.716;2023-06-24T17:42:56;28.30;91.00
23329;DHT22;11836;51.050;3.716;2023-06-24T17:46:06;28.30;91.20
23329;DHT22;11836;51.050;3.716;2023-06-24T17:48:32;28.30;91.20
23329;DHT22;11836;51.050;3.716;2023-06-24T17:50:58;28.20;91.10
23329;DHT22;11836;51.050;3.716;2023-06-24T17:53:23;28.20;91.10
23329;DHT22;11836;51.050;3.716;2023-06-24T17:55:49;28.20;91.10
23329;DHT22;11836;51.050;3.716;2023-06-24T17:58:15;28.10;91.10
23329;DHT22;11836;51.050;3.716;2023-06-24T18:00:40;28.20;91.10
23329;DHT22;11836;51.050;3.716;2023-06-24T18:03:07;28.10;91.10
23329;DHT22;11836;51.050;3.716;2023-06-24T18:05:33;28.10;91.00
23329;DHT22;11836;51.050;3.716;2023-06-24T18:10:56;28.00;91.10
23329;DHT22;11836;51.050;3.716;2023-06-24T18:13:22;27.90;91.30
23329;DHT22;11836;51.050;3.716;2023-06-24T18:15:48;27.80;91.30
23329;DHT22;11836;51.050;3.716;2023-06-24T18:18:13;27.80;91.40
23329;DHT22;11836;51.050;3.716;2023-06-24T18:20:42;27.80;91.20
23329;DHT22;11836;51.050;3.716;2023-06-24T18:23:08;27.80;91.10
23329;DHT22;11836;51.050;3.716;2023-06-24T18:25:33;27.70;91.10
23329;DHT22;11836;51.050;3.716;2023-06-24T18:27:59;27.70;91.20
23329;DHT22;11836;51.050;3.716;2023-06-24T18:30:24;27.60;91.20